sensor_id;sensor_type;location;lat;lon;timestamp;pressure;altitude;pressure_sealevel;temperature
15079;BMP180;6932;51.438;5.470;2023-03-04T00:02:03;102239.00;;;11.90
15079;BMP180;6932;51.438;5.470;2023-03-04T00:04:28;102247.00;;;12.00
15079;BMP180;6932;51.438;5.470;2023-03-04T00:06:54;102248.00;;;12.00
15079;BMP180;6932;51.438;5.470;2023-03-04T00:09:20;102244.00;;;12.00
15079;BMP180;6932;51.438;5.470;2023-03-04T00:11:46;102254.00;;;12.00
15079;BMP180;6932;51.438;5.470;2023-03-04T00:14:12;102256.00;;;12.00
15079;BMP180;6932;51.438;5.470;2023-03-04T00:16:37;102242.00;;;12.00
15079;BMP180;6932;51.438;5.470;2023-03-04T00:19:04;102248.00;;;11.90
15079;BMP180;6932;51.438;5.470;2023-03-04T00:21:30;102241.00;;;11.90
15079;BMP180;6932;51.438;5.470;2023-03-04T00:23:56;102235.00;;;11.90
15079;BMP180;6932;51.438;5.470;2023-03-04T00:26:21;102232.00;;;11.90
15079;BMP180;6932;51.438;5.470;2023-03-04T00:28:47;102238.00;;;12.00
15079;BMP180;6932;51.438;5.470;2023-03-04T00:31:13;102228.00;;;11.90
15079;BMP180;6932;51.438;5.470;2023-03-04T00:33:39;102226.00;;;11.90
15079;BMP180;6932;51.438;5.470;2023-03-04T00:36:05;102231.00;;;11.90
15079;BMP180;6932;51.438;5.470;2023-03-04T00:38:31;102231.00;;;12.00
15079;BMP180;6932;51.438;5.470;2023-03-04T00:40:57;102235.00;;;12.00
15079;BMP180;6932;51.438;5.470;2023-03-04T00:43:23;102227.00;;;11.90
15079;BMP180;6932;51.438;5.470;2023-03-04T00:45:49;102236.00;;;11.90
15079;BMP180;6932;51.438;5.470;2023-03-04T00:48:15;102244.00;;;11.90
15079;BMP180;6932;51.438;5.470;2023-03-04T00:50:42;102230.00;;;11.90
15079;BMP180;6932;51.438;5.470;2023-03-04T00:53:09;102235.00;;;11.90
15079;BMP180;6932;51.438;5.470;2023-03-04T00:55:35;102230.00;;;11.90
15079;BMP180;6932;51.438;5.470;2023-03-04T00:58:01;102229.00;;;11.90
15079;BMP180;6932;51.438;5.470;2023-03-04T01:00:27;102221.00;;;11.90
15079;BMP180;6932;51.438;5.470;2023-03-04T01:02:53;102234.00;;;11.90
15079;BMP180;6932;51.438;5.470;2023-03-04T01:05:19;102235.00;;;11.90
15079;BMP180;6932;51.438;5.470;2023-03-04T01:07:45;102236.00;;;11.90
15079;BMP180;6932;51.438;5.470;2023-03-04T01:10:13;102240.00;;;11.90
15079;BMP180;6932;51.438;5.470;2023-03-04T01:12:39;102244.00;;;11.90
15079;BMP180;6932;51.438;5.470;2023-03-04T01:15:08;102245.00;;;11.90
15079;BMP180;6932;51.438;5.470;2023-03-04T01:17:34;102243.00;;;11.90
15079;BMP180;6932;51.438;5.470;2023-03-04T01:20:00;102241.00;;;11.90
15079;BMP180;6932;51.438;5.470;2023-03-04T01:22:26;102239.00;;;11.90
15079;BMP180;6932;51.438;5.470;2023-03-04T01:24:51;102240.00;;;11.90
15079;BMP180;6932;51.438;5.470;2023-03-04T01:27:17;102240.00;;;11.90
15079;BMP180;6932;51.438;5.470;2023-03-04T01:29:43;102247.00;;;11.90
15079;BMP180;6932;51.438;5.470;2023-03-04T01:32:09;102238.00;;;11.90
15079;BMP180;6932;51.438;5.470;2023-03-04T01:34:34;102231.00;;;11.90
15079;BMP180;6932;51.438;5.470;2023-03-04T01:37:01;102230.00;;;11.90
15079;BMP180;6932;51.438;5.470;2023-03-04T01:39:27;102224.00;;;11.90
15079;BMP180;6932;51.438;5.470;2023-03-04T01:41:53;102220.00;;;11.90
15079;BMP180;6932;51.438;5.470;2023-03-04T01:44:18;102222.00;;;11.90
15079;BMP180;6932;51.438;5.470;2023-03-04T01:46:51;102216.00;;;11.90
15079;BMP180;6932;51.438;5.470;2023-03-04T01:49:18;102217.00;;;11.90
15079;BMP180;6932;51.438;5.470;2023-03-04T01:51:51;102218.00;;;11.90
15079;BMP180;6932;51.438;5.470;2023-03-04T01:54:19;102218.00;;;11.90
15079;BMP180;6932;51.438;5.470;2023-03-04T01:56:48;102212.00;;;11.90
15079;BMP180;6932;51.438;5.470;2023-03-04T01:59:24;102210.00;;;11.90
15079;BMP180;6932;51.438;5.470;2023-03-04T02:01:56;102203.00;;;11.90
15079;BMP180;6932;51.438;5.470;2023-03-04T02:04:28;102206.00;;;11.90
15079;BMP180;6932;51.438;5.470;2023-03-04T02:06:57;102194.00;;;11.90
15079;BMP180;6932;51.438;5.470;2023-03-04T02:09:24;102199.00;;;11.80
15079;BMP180;6932;51.438;5.470;2023-03-04T02:11:51;102200.00;;;11.80
15079;BMP180;6932;51.438;5.470;2023-03-04T02:14:19;102188.00;;;11.80
15079;BMP180;6932;51.438;5.470;2023-03-04T02:16:47;102192.00;;;11.80
15079;BMP180;6932;51.438;5.470;2023-03-04T02:19:31;102191.00;;;11.90
15079;BMP180;6932;51.438;5.470;2023-03-04T02:22:02;102186.00;;;11.80
15079;BMP180;6932;51.438;5.470;2023-03-04T02:24:53;102192.00;;;11.80
15079;BMP180;6932;51.438;5.470;2023-03-04T02:27:21;102191.00;;;11.80
15079;BMP180;6932;51.438;5.470;2023-03-04T02:29:47;102194.00;;;11.80
15079;BMP180;6932;51.438;5.470;2023-03-04T02:32:15;102182.00;;;11.80
15079;BMP180;6932;51.438;5.470;2023-03-04T02:34:47;102179.00;;;11.80
15079;BMP180;6932;51.438;5.470;2023-03-04T02:37:14;102186.00;;;11.80
15079;BMP180;6932;51.438;5.470;2023-03-04T02:39:46;102185.00;;;11.80
15079;BMP180;6932;51.438;5.470;2023-03-04T02:42:12;102186.00;;;11.80
15079;BMP180;6932;51.438;5.470;2023-03-04T02:44:42;102183.00;;;11.80
15079;BMP180;6932;51.438;5.470;2023-03-04T02:47:13;102171.00;;;11.80
15079;BMP180;6932;51.438;5.470;2023-03-04T02:49:40;102170.00;;;11.80
15079;BMP180;6932;51.438;5.470;2023-03-04T02:52:12;102167.00;;;11.80
15079;BMP180;6932;51.438;5.470;2023-03-04T02:54:38;102166.00;;;11.80
15079;BMP180;6932;51.438;5.470;2023-03-04T02:57:08;102168.00;;;11.80
15079;BMP180;6932;51.438;5.470;2023-03-04T02:59:36;102167.00;;;11.80
15079;BMP180;6932;51.438;5.470;2023-03-04T03:02:03;102165.00;;;11.80
15079;BMP180;6932;51.438;5.470;2023-03-04T03:04:29;102163.00;;;11.80
15079;BMP180;6932;51.438;5.470;2023-03-04T03:06:55;102163.00;;;11.80
15079;BMP180;6932;51.438;5.470;2023-03-04T03:09:21;102160.00;;;11.80
15079;BMP180;6932;51.438;5.470;2023-03-04T03:11:47;102155.00;;;11.80
15079;BMP180;6932;51.438;5.470;2023-03-04T03:14:13;102155.00;;;11.80
15079;BMP180;6932;51.438;5.470;2023-03-04T03:16:39;102151.00;;;11.80
15079;BMP180;6932;51.438;5.470;2023-03-04T03:19:05;102156.00;;;11.80
15079;BMP180;6932;51.438;5.470;2023-03-04T03:21:31;102155.00;;;11.80
15079;BMP180;6932;51.438;5.470;2023-03-04T03:23:57;102159.00;;;11.80
15079;BMP180;6932;51.438;5.470;2023-03-04T03:26:23;102158.00;;;11.80
15079;BMP180;6932;51.438;5.470;2023-03-04T03:28:48;102162.00;;;11.80
15079;BMP180;6932;51.438;5.470;2023-03-04T03:31:14;102159.00;;;11.80
15079;BMP180;6932;51.438;5.470;2023-03-04T03:33:40;102142.00;;;11.80
15079;BMP180;6932;51.438;5.470;2023-03-04T03:36:07;102150.00;;;11.80
15079;BMP180;6932;51.438;5.470;2023-03-04T03:38:35;102143.00;;;11.80
15079;BMP180;6932;51.438;5.470;2023-03-04T03:41:01;102141.00;;;11.80
15079;BMP180;6932;51.438;5.470;2023-03-04T03:43:27;102146.00;;;11.70
15079;BMP180;6932;51.438;5.470;2023-03-04T03:45:52;102147.00;;;11.70
15079;BMP180;6932;51.438;5.470;2023-03-04T03:48:18;102139.00;;;11.70
15079;BMP180;6932;51.438;5.470;2023-03-04T03:50:44;102144.00;;;11.80
15079;BMP180;6932;51.438;5.470;2023-03-04T03:53:10;102146.00;;;11.80
15079;BMP180;6932;51.438;5.470;2023-03-04T03:55:36;102137.00;;;11.70
15079;BMP180;6932;51.438;5.470;2023-03-04T03:58:04;102142.00;;;11.80
15079;BMP180;6932;51.438;5.470;2023-03-04T04:00:29;102142.00;;;11.70
15079;BMP180;6932;51.438;5.470;2023-03-04T04:02:59;102149.00;;;11.70
15079;BMP180;6932;51.438;5.470;2023-03-04T04:05:25;102147.00;;;11.70
15079;BMP180;6932;51.438;5.470;2023-03-04T04:07:51;102141.00;;;11.70
15079;BMP180;6932;51.438;5.470;2023-03-04T04:10:17;102143.00;;;11.70
15079;BMP180;6932;51.438;5.470;2023-03-04T04:12:43;102144.00;;;11.70
15079;BMP180;6932;51.438;5.470;2023-03-04T04:15:11;102149.00;;;11.70
15079;BMP180;6932;51.438;5.470;2023-03-04T04:17:37;102143.00;;;11.70
15079;BMP180;6932;51.438;5.470;2023-03-04T04:20:06;102148.00;;;11.70
15079;BMP180;6932;51.438;5.470;2023-03-04T04:22:32;102144.00;;;11.70
15079;BMP180;6932;51.438;5.470;2023-03-04T04:24:58;102135.00;;;11.70
15079;BMP180;6932;51.438;5.470;2023-03-04T04:27:24;102143.00;;;11.70
15079;BMP180;6932;51.438;5.470;2023-03-04T04:29:50;102145.00;;;11.70
15079;BMP180;6932;51.438;5.470;2023-03-04T04:32:16;102152.00;;;11.70
15079;BMP180;6932;51.438;5.470;2023-03-04T04:34:41;102143.00;;;11.70
15079;BMP180;6932;51.438;5.470;2023-03-04T04:37:07;102150.00;;;11.70
15079;BMP180;6932;51.438;5.470;2023-03-04T04:39:33;102154.00;;;11.70
15079;BMP180;6932;51.438;5.470;2023-03-04T04:41:59;102154.00;;;11.70
15079;BMP180;6932;51.438;5.470;2023-03-04T04:44:25;102145.00;;;11.70
15079;BMP180;6932;51.438;5.470;2023-03-04T04:46:50;102149.00;;;11.70
15079;BMP180;6932;51.438;5.470;2023-03-04T04:49:16;102150.00;;;11.70
15079;BMP180;6932;51.438;5.470;2023-03-04T04:51:42;102152.00;;;11.70
15079;BMP180;6932;51.438;5.470;2023-03-04T04:54:09;102150.00;;;11.70
15079;BMP180;6932;51.438;5.470;2023-03-04T04:56:35;102150.00;;;11.70
15079;BMP180;6932;51.438;5.470;2023-03-04T04:59:04;102147.00;;;11.70
15079;BMP180;6932;51.438;5.470;2023-03-04T05:01:30;102156.00;;;11.70
15079;BMP180;6932;51.438;5.470;2023-03-04T05:03:56;102151.00;;;11.70
15079;BMP180;6932;51.438;5.470;2023-03-04T05:06:23;102155.00;;;11.70
15079;BMP180;6932;51.438;5.470;2023-03-04T05:08:50;102152.00;;;11.70
15079;BMP180;6932;51.438;5.470;2023-03-04T05:11:17;102154.00;;;11.70
15079;BMP180;6932;51.438;5.470;2023-03-04T05:13:45;102151.00;;;11.70
15079;BMP180;6932;51.438;5.470;2023-03-04T05:16:10;102147.00;;;11.70
15079;BMP180;6932;51.438;5.470;2023-03-04T05:18:37;102158.00;;;11.70
15079;BMP180;6932;51.438;5.470;2023-03-04T05:21:04;102151.00;;;11.70
15079;BMP180;6932;51.438;5.470;2023-03-04T05:23:35;102149.00;;;11.70
15079;BMP180;6932;51.438;5.470;2023-03-04T05:26:03;102146.00;;;11.70
15079;BMP180;6932;51.438;5.470;2023-03-04T05:28:29;102145.00;;;11.70
15079;BMP180;6932;51.438;5.470;2023-03-04T05:30:55;102141.00;;;11.70
15079;BMP180;6932;51.438;5.470;2023-03-04T05:33:21;102144.00;;;11.70
15079;BMP180;6932;51.438;5.470;2023-03-04T05:35:48;102146.00;;;11.70
15079;BMP180;6932;51.438;5.470;2023-03-04T05:38:17;102146.00;;;11.70
15079;BMP180;6932;51.438;5.470;2023-03-04T05:40:44;102151.00;;;11.70
15079;BMP180;6932;51.438;5.470;2023-03-04T05:43:11;102157.00;;;11.70
15079;BMP180;6932;51.438;5.470;2023-03-04T05:45:37;102162.00;;;11.70
15079;BMP180;6932;51.438;5.470;2023-03-04T05:48:04;102159.00;;;11.70
15079;BMP180;6932;51.438;5.470;2023-03-04T05:50:31;102160.00;;;11.70
15079;BMP180;6932;51.438;5.470;2023-03-04T05:52:57;102160.00;;;11.70
15079;BMP180;6932;51.438;5.470;2023-03-04T05:55:23;102167.00;;;11.70
15079;BMP180;6932;51.438;5.470;2023-03-04T05:57:49;102162.00;;;11.70
15079;BMP180;6932;51.438;5.470;2023-03-04T06:00:16;102162.00;;;11.70
15079;BMP180;6932;51.438;5.470;2023-03-04T06:02:43;102150.00;;;11.70
15079;BMP180;6932;51.438;5.470;2023-03-04T06:05:11;102159.00;;;11.70
15079;BMP180;6932;51.438;5.470;2023-03-04T06:07:37;102160.00;;;11.70
15079;BMP180;6932;51.438;5.470;2023-03-04T06:10:05;102157.00;;;11.70
15079;BMP180;6932;51.438;5.470;2023-03-04T06:12:30;102158.00;;;11.70
15079;BMP180;6932;51.438;5.470;2023-03-04T06:14:56;102162.00;;;11.70
15079;BMP180;6932;51.438;5.470;2023-03-04T06:17:22;102161.00;;;11.70
15079;BMP180;6932;51.438;5.470;2023-03-04T06:19:48;102166.00;;;11.70
15079;BMP180;6932;51.438;5.470;2023-03-04T06:22:14;102165.00;;;11.70
15079;BMP180;6932;51.438;5.470;2023-03-04T06:24:39;102167.00;;;11.70
15079;BMP180;6932;51.438;5.470;2023-03-04T06:27:06;102157.00;;;11.60
15079;BMP180;6932;51.438;5.470;2023-03-04T06:29:32;102174.00;;;11.70
15079;BMP180;6932;51.438;5.470;2023-03-04T06:31:58;102172.00;;;11.60
15079;BMP180;6932;51.438;5.470;2023-03-04T06:34:23;102181.00;;;11.70
15079;BMP180;6932;51.438;5.470;2023-03-04T06:36:49;102171.00;;;11.60
15079;BMP180;6932;51.438;5.470;2023-03-04T06:39:15;102178.00;;;11.70
15079;BMP180;6932;51.438;5.470;2023-03-04T06:41:41;102179.00;;;11.60
15079;BMP180;6932;51.438;5.470;2023-03-04T06:44:07;102187.00;;;11.60
15079;BMP180;6932;51.438;5.470;2023-03-04T06:46:34;102190.00;;;11.60
15079;BMP180;6932;51.438;5.470;2023-03-04T06:49:00;102180.00;;;11.60
15079;BMP180;6932;51.438;5.470;2023-03-04T06:51:26;102184.00;;;11.60
15079;BMP180;6932;51.438;5.470;2023-03-04T06:53:52;102185.00;;;11.60
15079;BMP180;6932;51.438;5.470;2023-03-04T06:56:18;102194.00;;;11.60
15079;BMP180;6932;51.438;5.470;2023-03-04T06:58:44;102197.00;;;11.60
15079;BMP180;6932;51.438;5.470;2023-03-04T07:01:14;102202.00;;;11.60
15079;BMP180;6932;51.438;5.470;2023-03-04T07:03:40;102205.00;;;11.60
15079;BMP180;6932;51.438;5.470;2023-03-04T07:06:07;102194.00;;;11.60
15079;BMP180;6932;51.438;5.470;2023-03-04T07:08:33;102204.00;;;11.60
15079;BMP180;6932;51.438;5.470;2023-03-04T07:10:59;102200.00;;;11.60
15079;BMP180;6932;51.438;5.470;2023-03-04T07:13:25;102207.00;;;11.60
15079;BMP180;6932;51.438;5.470;2023-03-04T07:15:51;102204.00;;;11.60
15079;BMP180;6932;51.438;5.470;2023-03-04T07:18:17;102202.00;;;11.60
15079;BMP180;6932;51.438;5.470;2023-03-04T07:20:43;102207.00;;;11.60
15079;BMP180;6932;51.438;5.470;2023-03-04T07:23:09;102204.00;;;11.60
15079;BMP180;6932;51.438;5.470;2023-03-04T07:25:34;102209.00;;;11.60
15079;BMP180;6932;51.438;5.470;2023-03-04T07:28:00;102210.00;;;11.50
15079;BMP180;6932;51.438;5.470;2023-03-04T07:30:26;102207.00;;;11.50
15079;BMP180;6932;51.438;5.470;2023-03-04T07:32:52;102206.00;;;11.50
15079;BMP180;6932;51.438;5.470;2023-03-04T07:35:18;102219.00;;;11.50
15079;BMP180;6932;51.438;5.470;2023-03-04T07:37:44;102221.00;;;11.50
15079;BMP180;6932;51.438;5.470;2023-03-04T07:40:10;102225.00;;;11.50
15079;BMP180;6932;51.438;5.470;2023-03-04T07:42:36;102223.00;;;11.50
15079;BMP180;6932;51.438;5.470;2023-03-04T07:45:03;102220.00;;;11.50
15079;BMP180;6932;51.438;5.470;2023-03-04T07:47:29;102215.00;;;11.50
15079;BMP180;6932;51.438;5.470;2023-03-04T07:49:55;102229.00;;;11.60
15079;BMP180;6932;51.438;5.470;2023-03-04T07:52:21;102229.00;;;11.50
15079;BMP180;6932;51.438;5.470;2023-03-04T07:54:47;102229.00;;;11.60
15079;BMP180;6932;51.438;5.470;2023-03-04T07:57:13;102228.00;;;11.60
15079;BMP180;6932;51.438;5.470;2023-03-04T07:59:38;102236.00;;;11.60
15079;BMP180;6932;51.438;5.470;2023-03-04T08:02:04;102230.00;;;11.60
15079;BMP180;6932;51.438;5.470;2023-03-04T08:04:30;102228.00;;;11.60
15079;BMP180;6932;51.438;5.470;2023-03-04T08:06:55;102226.00;;;11.60
15079;BMP180;6932;51.438;5.470;2023-03-04T08:09:21;102239.00;;;11.60
15079;BMP180;6932;51.438;5.470;2023-03-04T08:11:47;102239.00;;;11.60
15079;BMP180;6932;51.438;5.470;2023-03-04T08:14:13;102239.00;;;11.60
15079;BMP180;6932;51.438;5.470;2023-03-04T08:16:40;102229.00;;;11.60
15079;BMP180;6932;51.438;5.470;2023-03-04T08:19:06;102231.00;;;11.60
15079;BMP180;6932;51.438;5.470;2023-03-04T08:21:33;102242.00;;;11.60
15079;BMP180;6932;51.438;5.470;2023-03-04T08:24:01;102237.00;;;11.60
15079;BMP180;6932;51.438;5.470;2023-03-04T08:26:37;102241.00;;;11.60
15079;BMP180;6932;51.438;5.470;2023-03-04T08:29:05;102245.00;;;11.60
15079;BMP180;6932;51.438;5.470;2023-03-04T08:31:32;102245.00;;;11.60
15079;BMP180;6932;51.438;5.470;2023-03-04T08:33:59;102250.00;;;11.70
15079;BMP180;6932;51.438;5.470;2023-03-04T08:36:24;102245.00;;;11.70
15079;BMP180;6932;51.438;5.470;2023-03-04T08:38:50;102248.00;;;11.80
15079;BMP180;6932;51.438;5.470;2023-03-04T08:41:16;102245.00;;;11.80
15079;BMP180;6932;51.438;5.470;2023-03-04T08:43:42;102243.00;;;11.80
15079;BMP180;6932;51.438;5.470;2023-03-04T08:46:08;102248.00;;;11.90
15079;BMP180;6932;51.438;5.470;2023-03-04T08:48:36;102247.00;;;11.90
15079;BMP180;6932;51.438;5.470;2023-03-04T08:51:12;102240.00;;;12.00
15079;BMP180;6932;51.438;5.470;2023-03-04T08:53:39;102248.00;;;12.00
15079;BMP180;6932;51.438;5.470;2023-03-04T08:56:06;102246.00;;;12.00
15079;BMP180;6932;51.438;5.470;2023-03-04T08:58:32;102240.00;;;12.00
15079;BMP180;6932;51.438;5.470;2023-03-04T09:01:00;102244.00;;;12.10
15079;BMP180;6932;51.438;5.470;2023-03-04T09:03:26;102235.00;;;12.20
15079;BMP180;6932;51.438;5.470;2023-03-04T09:05:52;102235.00;;;12.20
15079;BMP180;6932;51.438;5.470;2023-03-04T09:08:19;102237.00;;;12.30
15079;BMP180;6932;51.438;5.470;2023-03-04T09:10:46;102231.00;;;12.40
15079;BMP180;6932;51.438;5.470;2023-03-04T09:13:13;102230.00;;;12.40
15079;BMP180;6932;51.438;5.470;2023-03-04T09:15:47;102233.00;;;12.50
15079;BMP180;6932;51.438;5.470;2023-03-04T09:18:19;102224.00;;;12.50
15079;BMP180;6932;51.438;5.470;2023-03-04T09:20:46;102227.00;;;12.60
15079;BMP180;6932;51.438;5.470;2023-03-04T09:23:13;102228.00;;;12.60
15079;BMP180;6932;51.438;5.470;2023-03-04T09:25:41;102232.00;;;12.70
15079;BMP180;6932;51.438;5.470;2023-03-04T09:28:07;102216.00;;;12.80
15079;BMP180;6932;51.438;5.470;2023-03-04T09:30:34;102213.00;;;12.80
15079;BMP180;6932;51.438;5.470;2023-03-04T09:33:00;102219.00;;;12.90
15079;BMP180;6932;51.438;5.470;2023-03-04T09:35:27;102214.00;;;12.90
15079;BMP180;6932;51.438;5.470;2023-03-04T09:37:55;102218.00;;;13.00
15079;BMP180;6932;51.438;5.470;2023-03-04T09:40:32;102210.00;;;13.00
15079;BMP180;6932;51.438;5.470;2023-03-04T09:43:11;102216.00;;;13.10
15079;BMP180;6932;51.438;5.470;2023-03-04T09:45:47;102211.00;;;13.10
15079;BMP180;6932;51.438;5.470;2023-03-04T09:48:21;102210.00;;;13.20
15079;BMP180;6932;51.438;5.470;2023-03-04T09:56:26;102211.00;;;13.20
15079;BMP180;6932;51.438;5.470;2023-03-04T09:59:22;102212.00;;;13.30
15079;BMP180;6932;51.438;5.470;2023-03-04T10:01:54;102205.00;;;13.40
15079;BMP180;6932;51.438;5.470;2023-03-04T10:04:35;102213.00;;;13.40
15079;BMP180;6932;51.438;5.470;2023-03-04T10:07:14;102215.00;;;13.50
15079;BMP180;6932;51.438;5.470;2023-03-04T10:10:02;102197.00;;;13.50
15079;BMP180;6932;51.438;5.470;2023-03-04T10:12:31;102206.00;;;13.50
15079;BMP180;6932;51.438;5.470;2023-03-04T10:15:36;102205.00;;;13.60
15079;BMP180;6932;51.438;5.470;2023-03-04T10:18:26;102200.00;;;13.60
15079;BMP180;6932;51.438;5.470;2023-03-04T10:21:01;102205.00;;;13.60
15079;BMP180;6932;51.438;5.470;2023-03-04T10:23:30;102212.00;;;13.60
15079;BMP180;6932;51.438;5.470;2023-03-04T10:26:01;102209.00;;;13.60
15079;BMP180;6932;51.438;5.470;2023-03-04T10:28:34;102213.00;;;13.50
15079;BMP180;6932;51.438;5.470;2023-03-04T10:31:30;102202.00;;;13.50
15079;BMP180;6932;51.438;5.470;2023-03-04T10:33:56;102204.00;;;13.40
15079;BMP180;6932;51.438;5.470;2023-03-04T10:39:08;102202.00;;;13.40
15079;BMP180;6932;51.438;5.470;2023-03-04T10:41:34;102196.00;;;13.40
15079;BMP180;6932;51.438;5.470;2023-03-04T10:46:27;102191.00;;;13.50
15079;BMP180;6932;51.438;5.470;2023-03-04T10:48:54;102196.00;;;13.50
15079;BMP180;6932;51.438;5.470;2023-03-04T10:51:27;102195.00;;;13.60
15079;BMP180;6932;51.438;5.470;2023-03-04T10:54:07;102191.00;;;13.70
15079;BMP180;6932;51.438;5.470;2023-03-04T10:56:38;102180.00;;;13.70
15079;BMP180;6932;51.438;5.470;2023-03-04T10:59:34;102195.00;;;13.80
15079;BMP180;6932;51.438;5.470;2023-03-04T11:04:51;102182.00;;;13.80
15079;BMP180;6932;51.438;5.470;2023-03-04T11:07:20;102176.00;;;13.80
15079;BMP180;6932;51.438;5.470;2023-03-04T11:09:46;102180.00;;;13.70
15079;BMP180;6932;51.438;5.470;2023-03-04T11:12:16;102181.00;;;13.70
15079;BMP180;6932;51.438;5.470;2023-03-04T11:14:47;102175.00;;;13.70
15079;BMP180;6932;51.438;5.470;2023-03-04T11:19:47;102177.00;;;13.70
15079;BMP180;6932;51.438;5.470;2023-03-04T11:22:21;102172.00;;;13.70
15079;BMP180;6932;51.438;5.470;2023-03-04T11:25:06;102165.00;;;13.60
15079;BMP180;6932;51.438;5.470;2023-03-04T11:27:41;102168.00;;;13.60
15079;BMP180;6932;51.438;5.470;2023-03-04T11:30:49;102170.00;;;13.60
15079;BMP180;6932;51.438;5.470;2023-03-04T11:38:50;102155.00;;;13.50
15079;BMP180;6932;51.438;5.470;2023-03-04T11:41:41;102163.00;;;13.50
15079;BMP180;6932;51.438;5.470;2023-03-04T11:44:12;102147.00;;;13.50
15079;BMP180;6932;51.438;5.470;2023-03-04T11:49:56;102158.00;;;13.60
15079;BMP180;6932;51.438;5.470;2023-03-04T11:53:05;102150.00;;;13.50
15079;BMP180;6932;51.438;5.470;2023-03-04T11:55:55;102149.00;;;13.50
15079;BMP180;6932;51.438;5.470;2023-03-04T12:01:16;102135.00;;;13.40
15079;BMP180;6932;51.438;5.470;2023-03-04T12:10:03;102122.00;;;13.40
15079;BMP180;6932;51.438;5.470;2023-03-04T12:16:10;102110.00;;;13.50
15079;BMP180;6932;51.438;5.470;2023-03-04T12:21:54;102105.00;;;13.50
15079;BMP180;6932;51.438;5.470;2023-03-04T12:30:26;102085.00;;;13.50
15079;BMP180;6932;51.438;5.470;2023-03-04T12:33:11;102081.00;;;13.60
15079;BMP180;6932;51.438;5.470;2023-03-04T12:35:46;102079.00;;;13.60
15079;BMP180;6932;51.438;5.470;2023-03-04T12:41:33;102077.00;;;13.60
15079;BMP180;6932;51.438;5.470;2023-03-04T12:44:16;102060.00;;;13.70
15079;BMP180;6932;51.438;5.470;2023-03-04T12:47:26;102081.00;;;13.70
15079;BMP180;6932;51.438;5.470;2023-03-04T12:50:35;102072.00;;;13.80
15079;BMP180;6932;51.438;5.470;2023-03-04T12:56:57;102066.00;;;13.90
15079;BMP180;6932;51.438;5.470;2023-03-04T12:59:29;102061.00;;;13.90
15079;BMP180;6932;51.438;5.470;2023-03-04T13:05:28;102041.00;;;13.90
15079;BMP180;6932;51.438;5.470;2023-03-04T13:08:50;102051.00;;;14.00
15079;BMP180;6932;51.438;5.470;2023-03-04T13:16:41;102041.00;;;14.00
15079;BMP180;6932;51.438;5.470;2023-03-04T13:19:45;102038.00;;;14.00
15079;BMP180;6932;51.438;5.470;2023-03-04T13:28:14;102021.00;;;13.90
15079;BMP180;6932;51.438;5.470;2023-03-04T13:47:19;102032.00;;;13.90
15079;BMP180;6932;51.438;5.470;2023-03-04T13:49:46;102035.00;;;13.80
15079;BMP180;6932;51.438;5.470;2023-03-04T13:52:40;102035.00;;;13.80
15079;BMP180;6932;51.438;5.470;2023-03-04T13:55:36;102021.00;;;13.70
15079;BMP180;6932;51.438;5.470;2023-03-04T13:58:23;102028.00;;;13.70
15079;BMP180;6932;51.438;5.470;2023-03-04T14:00:54;102027.00;;;13.70
15079;BMP180;6932;51.438;5.470;2023-03-04T14:03:29;102020.00;;;13.60
15079;BMP180;6932;51.438;5.470;2023-03-04T14:08:35;102021.00;;;13.60
15079;BMP180;6932;51.438;5.470;2023-03-04T14:11:01;102025.00;;;13.60
15079;BMP180;6932;51.438;5.470;2023-03-04T14:13:27;102024.00;;;13.60
15079;BMP180;6932;51.438;5.470;2023-03-04T14:15:58;102021.00;;;13.60
15079;BMP180;6932;51.438;5.470;2023-03-04T14:18:24;102015.00;;;13.50
15079;BMP180;6932;51.438;5.470;2023-03-04T14:20:51;102018.00;;;13.50
15079;BMP180;6932;51.438;5.470;2023-03-04T14:23:34;102008.00;;;13.50
15079;BMP180;6932;51.438;5.470;2023-03-04T14:26:13;102009.00;;;13.50
15079;BMP180;6932;51.438;5.470;2023-03-04T14:28:49;102017.00;;;13.40
15079;BMP180;6932;51.438;5.470;2023-03-04T14:31:20;102001.00;;;13.40
15079;BMP180;6932;51.438;5.470;2023-03-04T14:33:51;102001.00;;;13.40
15079;BMP180;6932;51.438;5.470;2023-03-04T14:36:21;101995.00;;;13.40
15079;BMP180;6932;51.438;5.470;2023-03-04T14:39:14;101988.00;;;13.40
15079;BMP180;6932;51.438;5.470;2023-03-04T14:41:41;101997.00;;;13.40
15079;BMP180;6932;51.438;5.470;2023-03-04T14:44:41;101990.00;;;13.40
15079;BMP180;6932;51.438;5.470;2023-03-04T14:47:35;101990.00;;;13.40
15079;BMP180;6932;51.438;5.470;2023-03-04T14:50:11;101976.00;;;13.40
15079;BMP180;6932;51.438;5.470;2023-03-04T14:52:42;101982.00;;;13.40
15079;BMP180;6932;51.438;5.470;2023-03-04T14:55:18;101966.00;;;13.40
15079;BMP180;6932;51.438;5.470;2023-03-04T14:57:50;101970.00;;;13.40
15079;BMP180;6932;51.438;5.470;2023-03-04T15:00:30;101967.00;;;13.50
15079;BMP180;6932;51.438;5.470;2023-03-04T15:03:04;101947.00;;;13.50
15079;BMP180;6932;51.438;5.470;2023-03-04T15:05:35;101970.00;;;13.50
15079;BMP180;6932;51.438;5.470;2023-03-04T15:08:40;101966.00;;;13.50
15079;BMP180;6932;51.438;5.470;2023-03-04T15:11:07;101971.00;;;13.40
15079;BMP180;6932;51.438;5.470;2023-03-04T15:13:47;101958.00;;;13.40
15079;BMP180;6932;51.438;5.470;2023-03-04T15:16:16;101956.00;;;13.40
15079;BMP180;6932;51.438;5.470;2023-03-04T15:19:18;101947.00;;;13.40
15079;BMP180;6932;51.438;5.470;2023-03-04T15:21:47;101956.00;;;13.40
15079;BMP180;6932;51.438;5.470;2023-03-04T15:24:13;101947.00;;;13.40
15079;BMP180;6932;51.438;5.470;2023-03-04T15:26:42;101949.00;;;13.50
15079;BMP180;6932;51.438;5.470;2023-03-04T15:29:19;101944.00;;;13.50
15079;BMP180;6932;51.438;5.470;2023-03-04T15:31:47;101947.00;;;13.50
15079;BMP180;6932;51.438;5.470;2023-03-04T15:34:18;101951.00;;;13.60
15079;BMP180;6932;51.438;5.470;2023-03-04T15:36:48;101949.00;;;13.60
15079;BMP180;6932;51.438;5.470;2023-03-04T15:39:17;101934.00;;;13.60
15079;BMP180;6932;51.438;5.470;2023-03-04T15:41:43;101932.00;;;13.60
15079;BMP180;6932;51.438;5.470;2023-03-04T15:44:11;101942.00;;;13.60
15079;BMP180;6932;51.438;5.470;2023-03-04T15:46:37;101945.00;;;13.60
15079;BMP180;6932;51.438;5.470;2023-03-04T15:49:03;101936.00;;;13.70
15079;BMP180;6932;51.438;5.470;2023-03-04T15:51:29;101945.00;;;13.70
15079;BMP180;6932;51.438;5.470;2023-03-04T15:53:56;101951.00;;;13.70